Time;durP1;ratioP1;P1;durP2;ratioP2;P2;SDS_P1;SDS_P2;PMS_P1;PMS_P2;Temp;Humidity;BMP_temperature;BMP_pressure;BME280_temperature;BME280_humidity;BME280_pressure;Samples;Min_cycle;Max_cycle;Signal;HPM_P1;HPM_P2
2023/07/23 00:00:28;;;;;;;10.27;6.28;;;14.80;99.90;;;;;;5096269;28;20039;-57
2023/07/23 00:02:54;;;;;;;9.10;5.90;;;15.00;99.90;;;;;;5094931;28;20397;-57
2023/07/23 00:05:23;;;;;;;12.85;6.53;;;15.00;99.90;;;;;;5096145;28;20032;-58
2023/07/23 00:07:56;;;;;;;13.35;6.85;;;14.90;99.90;;;;;;5096104;28;20044;-58
2023/07/23 00:10:21;;;;;;;9.45;6.25;;;14.80;99.90;;;;;;5096330;28;20052;-58
2023/07/23 00:12:47;;;;;;;10.52;6.38;;;14.80;99.90;;;;;;5096398;28;20109;-56
2023/07/23 00:15:13;;;;;;;10.15;6.43;;;14.90;99.90;;;;;;5094926;28;20524;-57
2023/07/23 00:17:40;;;;;;;10.68;6.38;;;14.80;99.90;;;;;;5095858;28;20121;-58
2023/07/23 00:20:10;;;;;;;13.38;6.90;;;14.80;99.90;;;;;;5095593;28;20032;-57
2023/07/23 00:22:36;;;;;;;13.40;6.65;;;14.90;99.90;;;;;;5096040;28;20073;-59
2023/07/23 00:25:03;;;;;;;10.45;6.82;;;14.80;99.90;;;;;;5095916;28;20513;-58
2023/07/23 00:27:28;;;;;;;8.95;6.18;;;14.80;99.90;;;;;;5095565;28;20363;-59
2023/07/23 00:29:55;;;;;;;14.30;5.60;;;14.70;99.90;;;;;;5095523;28;20068;-58
2023/07/23 00:32:21;;;;;;;8.68;5.78;;;14.90;99.90;;;;;;5107808;28;20048;-59
2023/07/23 00:34:46;;;;;;;10.20;6.18;;;14.70;99.90;;;;;;5115967;28;20397;-58
2023/07/23 00:37:12;;;;;;;10.63;5.75;;;14.80;99.90;;;;;;5116078;28;20036;-59
2023/07/23 00:39:38;;;;;;;9.77;5.85;;;14.90;99.90;;;;;;5115706;28;20039;-57
2023/07/23 00:42:04;;;;;;;12.45;6.47;;;14.80;99.90;;;;;;5115474;28;20038;-58
2023/07/23 00:44:30;;;;;;;9.20;5.75;;;14.70;99.90;;;;;;5114780;28;20473;-58
2023/07/23 00:46:58;;;;;;;9.20;5.60;;;14.80;99.90;;;;;;5115816;28;20036;-58
2023/07/23 00:49:24;;;;;;;9.82;6.22;;;14.70;99.90;;;;;;5115726;28;20458;-58
2023/07/23 00:51:50;;;;;;;10.10;6.05;;;14.70;99.90;;;;;;5115849;28;20077;-58
2023/07/23 00:54:16;;;;;;;11.15;6.15;;;14.80;99.90;;;;;;5116150;28;20027;-57
2023/07/23 00:56:44;;;;;;;8.30;5.82;;;14.80;99.90;;;;;;5115322;28;20127;-57
2023/07/23 00:59:10;;;;;;;12.10;6.78;;;14.80;99.90;;;;;;5114053;28;20473;-57
2023/07/23 01:01:36;;;;;;;10.25;6.45;;;14.80;99.90;;;;;;5115767;28;20028;-57
2023/07/23 01:04:02;;;;;;;9.63;6.15;;;14.80;99.90;;;;;;5108424;28;20031;-58
2023/07/23 01:06:31;;;;;;;10.02;6.72;;;14.80;99.90;;;;;;5094654;28;20036;-58
2023/07/23 01:08:57;;;;;;;8.70;5.97;;;14.80;99.90;;;;;;5093696;28;20044;-58
2023/07/23 01:11:23;;;;;;;9.20;6.40;;;14.80;99.90;;;;;;5094822;28;20086;-56
2023/07/23 01:13:51;;;;;;;11.05;6.35;;;14.70;99.90;;;;;;5094663;28;20044;-56
2023/07/23 01:16:18;;;;;;;12.15;6.93;;;14.70;99.90;;;;;;5094844;28;20081;-57
2023/07/23 01:18:43;;;;;;;11.55;7.07;;;14.60;99.90;;;;;;5094939;28;20036;-58
2023/07/23 01:21:10;;;;;;;11.02;6.40;;;14.80;99.90;;;;;;5094136;28;20063;-58
2023/07/23 01:23:36;;;;;;;10.07;6.93;;;14.60;99.90;;;;;;5094586;28;20032;-57
2023/07/23 01:26:03;;;;;;;10.70;6.63;;;14.80;99.90;;;;;;5093224;28;20036;-58
2023/07/23 01:28:29;;;;;;;8.73;6.28;;;14.60;99.90;;;;;;5094420;28;20517;-58
2023/07/23 01:30:55;;;;;;;10.27;6.28;;;14.70;99.90;;;;;;5094568;28;20111;-58
2023/07/23 01:33:22;;;;;;;11.23;6.97;;;14.60;99.90;;;;;;5096889;28;20473;-57
2023/07/23 01:35:54;;;;;;;10.77;6.97;;;14.60;99.90;;;;;;5114857;28;20038;-58
2023/07/23 01:38:21;;;;;;;10.90;6.78;;;14.60;99.90;;;;;;5111274;28;20126;-59
2023/07/23 01:40:47;;;;;;;11.88;6.13;;;14.60;99.90;;;;;;5094774;28;20036;-57
2023/07/23 01:43:13;;;;;;;9.60;6.00;;;14.60;99.90;;;;;;5094198;28;20036;-58
2023/07/23 01:45:46;;;;;;;9.27;5.75;;;14.80;99.90;;;;;;5094451;28;20104;-58
2023/07/23 01:48:13;;;;;;;8.13;5.93;;;14.70;99.90;;;;;;5094350;28;20101;-57
2023/07/23 01:50:39;;;;;;;8.38;5.85;;;14.70;99.90;;;;;;5094067;28;20044;-58
2023/07/23 01:53:06;;;;;;;8.48;5.38;;;14.60;99.90;;;;;;5094122;28;20069;-58
2023/07/23 01:55:32;;;;;;;8.55;5.60;;;14.80;99.90;;;;;;5094260;28;20074;-58
2023/07/23 01:57:57;;;;;;;7.20;4.93;;;14.60;99.90;;;;;;5094044;28;20492;-58
2023/07/23 02:00:23;;;;;;;7.55;5.32;;;14.60;99.90;;;;;;5094139;28;20363;-58
2023/07/23 02:02:49;;;;;;;7.03;5.50;;;14.70;99.90;;;;;;5094083;28;20048;-59
2023/07/23 02:05:14;;;;;;;7.82;5.18;;;14.60;99.90;;;;;;5093653;28;20058;-58
2023/07/23 02:07:40;;;;;;;10.55;5.35;;;14.80;99.90;;;;;;5093461;28;20182;-57
2023/07/23 02:10:07;;;;;;;7.53;5.05;;;14.70;99.90;;;;;;5094013;28;20054;-57
2023/07/23 02:12:33;;;;;;;8.13;5.20;;;14.70;99.90;;;;;;5093549;28;20386;-58
2023/07/23 02:14:59;;;;;;;7.50;5.32;;;14.80;99.90;;;;;;5094051;28;20413;-57
2023/07/23 02:17:25;;;;;;;8.85;5.50;;;14.60;99.90;;;;;;5093622;28;20040;-57
2023/07/23 02:19:51;;;;;;;9.60;5.72;;;14.80;99.90;;;;;;5093152;28;20036;-58
2023/07/23 02:22:16;;;;;;;8.73;5.35;;;14.70;99.90;;;;;;5093408;28;20170;-58
2023/07/23 02:24:42;;;;;;;9.63;5.63;;;14.80;99.90;;;;;;5093279;28;20061;-58
2023/07/23 02:27:08;;;;;;;7.53;5.32;;;14.70;99.90;;;;;;5093621;28;20036;-58
2023/07/23 02:29:33;;;;;;;10.20;5.45;;;14.60;99.90;;;;;;5108937;28;20101;-58
2023/07/23 02:31:59;;;;;;;7.47;5.85;;;14.80;99.90;;;;;;5093151;28;20180;-58
2023/07/23 02:34:25;;;;;;;7.43;5.20;;;14.80;99.90;;;;;;5093334;28;20115;-57
2023/07/23 02:36:50;;;;;;;7.72;5.07;;;14.70;99.90;;;;;;5106195;28;20044;-58
2023/07/23 02:39:16;;;;;;;9.23;4.93;;;14.70;99.90;;;;;;5113578;28;20544;-57
2023/07/23 02:41:42;;;;;;;8.38;5.40;;;14.70;99.90;;;;;;5112030;28;20122;-58
2023/07/23 02:44:07;;;;;;;7.68;5.95;;;14.70;99.90;;;;;;5112510;28;20038;-58
2023/07/23 02:46:33;;;;;;;8.95;5.22;;;14.70;99.90;;;;;;5113292;28;20034;-57
2023/07/23 02:48:59;;;;;;;9.38;5.43;;;14.80;99.90;;;;;;5113256;28;20134;-58
2023/07/23 02:51:24;;;;;;;9.73;5.28;;;14.70;99.90;;;;;;5113474;28;20067;-57
2023/07/23 02:53:50;;;;;;;9.30;6.05;;;14.80;99.90;;;;;;5113441;28;20040;-57
2023/07/23 02:56:15;;;;;;;8.10;5.03;;;14.80;99.90;;;;;;5112597;27;20374;-57
2023/07/23 02:58:41;;;;;;;7.65;5.20;;;14.80;99.90;;;;;;5129150;27;20043;-57
2023/07/23 03:01:09;;;;;;;7.88;5.35;;;14.70;99.90;;;;;;5113547;28;20034;-58
2023/07/23 03:03:35;;;;;;;9.00;4.88;;;14.80;99.90;;;;;;5113543;28;20047;-58
2023/07/23 03:06:02;;;;;;;8.23;5.38;;;14.80;99.90;;;;;;5113278;28;20115;-58
2023/07/23 03:08:28;;;;;;;11.43;6.45;;;14.70;99.90;;;;;;5113283;27;20046;-59
2023/07/23 03:10:53;;;;;;;11.23;5.30;;;14.70;99.90;;;;;;5111746;28;20039;-58
2023/07/23 03:13:19;;;;;;;9.95;6.32;;;14.70;99.90;;;;;;5103872;28;20406;-58
2023/07/23 03:15:45;;;;;;;7.80;5.78;;;14.70;99.90;;;;;;5092625;28;20094;-58
2023/07/23 03:18:11;;;;;;;10.27;5.70;;;14.70;99.90;;;;;;5093089;28;20492;-58
2023/07/23 03:20:36;;;;;;;8.32;5.30;;;14.70;99.90;;;;;;5091892;28;20035;-58
2023/07/23 03:23:02;;;;;;;9.20;5.65;;;14.80;99.90;;;;;;5092465;28;20089;-58
2023/07/23 03:25:28;;;;;;;11.75;6.50;;;14.80;99.90;;;;;;5092701;28;20036;-59
2023/07/23 03:27:56;;;;;;;8.43;5.28;;;14.80;99.90;;;;;;5092414;28;20032;-58
2023/07/23 03:30:22;;;;;;;8.80;5.68;;;14.70;99.90;;;;;;5091759;28;20087;-58
2023/07/23 03:32:48;;;;;;;10.90;6.10;;;14.80;99.90;;;;;;5091644;28;20067;-58
2023/07/23 03:35:13;;;;;;;8.07;6.07;;;14.70;99.90;;;;;;5092797;28;20040;-57
2023/07/23 03:37:39;;;;;;;8.93;5.90;;;14.70;99.90;;;;;;5092490;28;20053;-57
2023/07/23 03:40:05;;;;;;;12.00;6.35;;;14.80;99.90;;;;;;5107801;28;20042;-58
2023/07/23 03:42:31;;;;;;;10.32;6.53;;;14.70;99.90;;;;;;5112671;27;20036;-57
2023/07/23 03:44:57;;;;;;;10.10;6.43;;;14.70;99.90;;;;;;5112488;28;20093;-57
2023/07/23 03:47:22;;;;;;;12.73;6.70;;;14.70;99.90;;;;;;5112595;28;20043;-58
2023/07/23 03:49:48;;;;;;;12.13;6.88;;;14.80;99.90;;;;;;5112547;28;20054;-57
2023/07/23 03:52:14;;;;;;;12.45;7.03;;;14.90;99.90;;;;;;5113003;28;20031;-57
2023/07/23 03:54:40;;;;;;;9.35;7.10;;;14.80;99.90;;;;;;5112637;28;20139;-58
2023/07/23 03:57:06;;;;;;;11.73;7.18;;;14.70;99.90;;;;;;5112460;28;20035;-57
2023/07/23 03:59:39;;;;;;;10.15;7.38;;;14.90;99.90;;;;;;5112416;28;20054;-57
2023/07/23 04:02:06;;;;;;;8.82;7.50;;;14.70;99.90;;;;;;5110781;28;20115;-57
2023/07/23 04:04:32;;;;;;;12.25;7.40;;;14.80;99.90;;;;;;5112176;28;20044;-58
2023/07/23 04:06:58;;;;;;;10.63;7.05;;;14.70;99.90;;;;;;5112306;28;20042;-59
2023/07/23 04:09:24;;;;;;;10.27;7.13;;;14.80;99.90;;;;;;5111093;28;20044;-58
2023/07/23 04:11:49;;;;;;;12.32;7.32;;;14.80;99.90;;;;;;5112485;28;20035;-59
2023/07/23 04:14:15;;;;;;;13.15;7.85;;;14.70;99.90;;;;;;5095449;28;20484;-58
2023/07/23 04:16:41;;;;;;;11.35;6.93;;;14.70;99.90;;;;;;5090683;28;20033;-58
2023/07/23 04:19:06;;;;;;;11.25;7.22;;;14.70;99.90;;;;;;5091645;28;20040;-56
2023/07/23 04:21:32;;;;;;;11.02;6.50;;;14.80;99.90;;;;;;5091801;28;20133;-57
2023/07/23 04:23:58;;;;;;;10.95;6.88;;;14.80;99.90;;;;;;5090484;28;20048;-57
2023/07/23 04:26:27;;;;;;;9.90;6.90;;;14.60;99.90;;;;;;5091971;28;20036;-57
2023/07/23 04:28:53;;;;;;;11.13;6.97;;;14.70;99.90;;;;;;5091774;28;20485;-58
2023/07/23 04:31:19;;;;;;;11.25;6.93;;;14.80;99.90;;;;;;5090335;28;20267;-56
2023/07/23 04:33:46;;;;;;;10.63;6.78;;;14.70;99.90;;;;;;5092034;28;20044;-58
2023/07/23 04:36:13;;;;;;;10.85;6.40;;;14.60;99.90;;;;;;5090487;28;20036;-58
2023/07/23 04:38:40;;;;;;;12.02;7.32;;;14.60;99.90;;;;;;5073380;28;20552;-57
2023/07/23 04:41:06;;;;;;;10.23;7.63;;;14.60;99.90;;;;;;5107182;28;20035;-57
2023/07/23 04:43:32;;;;;;;11.02;7.45;;;14.60;99.90;;;;;;5113859;28;20105;-58
2023/07/23 04:45:58;;;;;;;12.55;7.43;;;14.70;99.90;;;;;;5116051;28;20040;-58
2023/07/23 04:48:24;;;;;;;9.80;6.80;;;14.70;99.90;;;;;;5115708;28;20068;-58
2023/07/23 04:50:57;;;;;;;14.18;7.50;;;14.70;99.90;;;;;;5114747;28;20126;-58
2023/07/23 04:53:23;;;;;;;12.38;7.72;;;14.70;99.90;;;;;;5115602;28;20032;-58
2023/07/23 04:55:57;;;;;;;16.58;7.80;;;14.80;99.90;;;;;;5115703;28;20136;-58
2023/07/23 04:58:24;;;;;;;10.65;6.85;;;14.80;99.90;;;;;;5115346;28;20044;-58
2023/07/23 05:00:50;;;;;;;10.80;7.25;;;14.80;99.90;;;;;;5115972;27;20420;-57
2023/07/23 05:03:16;;;;;;;11.73;7.40;;;14.60;99.90;;;;;;5114393;27;20043;-59
2023/07/23 05:05:44;;;;;;;17.73;8.20;;;14.70;99.90;;;;;;5115501;28;20042;-58
2023/07/23 05:08:10;;;;;;;10.57;7.28;;;14.60;99.90;;;;;;5114016;28;20073;-58
2023/07/23 05:10:36;;;;;;;13.13;8.00;;;14.80;99.90;;;;;;5113970;28;20036;-58
2023/07/23 05:13:02;;;;;;;10.52;7.13;;;14.80;99.90;;;;;;5108264;27;20051;-58
2023/07/23 05:15:27;;;;;;;11.57;7.70;;;14.80;99.90;;;;;;5095149;28;20040;-58
2023/07/23 05:17:53;;;;;;;13.05;7.90;;;14.60;99.90;;;;;;5094720;28;20032;-58
2023/07/23 05:20:19;;;;;;;10.05;6.80;;;14.70;99.90;;;;;;5094683;28;20181;-58
2023/07/23 05:22:44;;;;;;;14.45;7.90;;;14.80;99.90;;;;;;5094333;28;20044;-58
2023/07/23 05:25:10;;;;;;;11.90;8.43;;;14.90;99.90;;;;;;5095023;28;20051;-58
2023/07/23 05:27:36;;;;;;;12.80;8.48;;;14.70;99.90;;;;;;5094302;28;20039;-57
2023/07/23 05:30:03;;;;;;;14.15;9.07;;;14.80;99.90;;;;;;5094781;28;20040;-57
2023/07/23 05:32:29;;;;;;;16.92;8.95;;;14.90;99.90;;;;;;5094774;28;20040;-57
2023/07/23 05:34:55;;;;;;;13.23;8.90;;;14.70;99.90;;;;;;5094509;28;20044;-58
2023/07/23 05:37:21;;;;;;;12.95;8.90;;;14.70;99.90;;;;;;5076674;28;20558;-57
2023/07/23 05:39:48;;;;;;;12.38;9.00;;;14.70;99.90;;;;;;5094266;28;20051;-58
2023/07/23 05:42:14;;;;;;;12.02;8.50;;;14.90;99.90;;;;;;5094280;28;20497;-58
2023/07/23 05:44:39;;;;;;;15.02;8.88;;;14.80;99.90;;;;;;5094406;28;20464;-56
2023/07/23 05:47:05;;;;;;;11.82;9.05;;;15.00;99.90;;;;;;5094372;28;20039;-57
2023/07/23 05:49:31;;;;;;;13.98;9.38;;;15.00;99.90;;;;;;5094409;28;20047;-57
2023/07/23 05:51:58;;;;;;;13.45;8.60;;;14.90;99.90;;;;;;5094300;28;20061;-57
2023/07/23 05:54:24;;;;;;;14.20;9.30;;;14.80;99.90;;;;;;5093408;28;20115;-58
2023/07/23 05:56:50;;;;;;;13.82;9.20;;;14.90;99.90;;;;;;5094045;28;20028;-58
2023/07/23 05:59:16;;;;;;;15.32;9.27;;;15.00;99.90;;;;;;5093822;28;20059;-57
2023/07/23 06:01:42;;;;;;;18.20;9.75;;;15.00;99.90;;;;;;5093928;28;20032;-57
2023/07/23 06:04:08;;;;;;;12.88;9.27;;;15.00;99.90;;;;;;5094026;28;20114;-57
2023/07/23 06:06:34;;;;;;;12.98;8.88;;;14.90;99.90;;;;;;5093996;28;20028;-57
2023/07/23 06:08:59;;;;;;;12.15;9.25;;;15.10;99.90;;;;;;5092692;28;20521;-57
2023/07/23 06:11:25;;;;;;;16.33;10.00;;;14.90;99.90;;;;;;5093757;28;20591;-58
2023/07/23 06:13:50;;;;;;;14.77;8.90;;;14.90;99.90;;;;;;5093778;28;20032;-58
2023/07/23 06:16:16;;;;;;;13.02;8.70;;;14.90;99.90;;;;;;5092531;28;20044;-57
2023/07/23 06:18:42;;;;;;;16.00;9.65;;;14.90;99.90;;;;;;5093520;28;20508;-57
2023/07/23 06:21:07;;;;;;;13.60;9.68;;;15.10;99.90;;;;;;5093336;28;20067;-57
2023/07/23 06:23:34;;;;;;;13.50;8.68;;;15.00;99.90;;;;;;5093805;28;20028;-58
2023/07/23 06:26:00;;;;;;;15.80;10.00;;;15.10;99.90;;;;;;5093235;28;20488;-58
2023/07/23 06:28:26;;;;;;;14.77;8.82;;;15.20;99.90;;;;;;5093677;28;20036;-58
2023/07/23 06:30:55;;;;;;;13.75;9.55;;;15.20;99.90;;;;;;5093660;28;20047;-59
2023/07/23 06:33:21;;;;;;;11.80;8.80;;;15.10;99.90;;;;;;5093471;28;20109;-58
2023/07/23 06:35:48;;;;;;;14.82;9.20;;;15.20;99.90;;;;;;5093369;28;20043;-57
2023/07/23 06:38:14;;;;;;;14.23;8.80;;;15.10;99.90;;;;;;5091976;28;20509;-57
2023/07/23 06:40:47;;;;;;;12.57;9.48;;;15.10;99.90;;;;;;5093213;28;20032;-58
2023/07/23 06:43:13;;;;;;;12.60;9.80;;;15.30;99.90;;;;;;5093324;28;20508;-58
2023/07/23 06:45:39;;;;;;;14.38;9.65;;;15.20;99.90;;;;;;5092336;28;20051;-57
2023/07/23 06:48:05;;;;;;;17.35;9.82;;;15.40;99.90;;;;;;5093044;28;20039;-58
2023/07/23 06:50:31;;;;;;;15.80;10.20;;;15.40;99.90;;;;;;5093199;28;20086;-58
2023/07/23 06:52:58;;;;;;;15.98;11.02;;;15.30;99.90;;;;;;5091971;28;20036;-57
2023/07/23 06:55:24;;;;;;;12.27;9.40;;;15.30;99.90;;;;;;5092979;28;20422;-57
2023/07/23 06:57:50;;;;;;;14.60;9.38;;;15.40;99.90;;;;;;5091773;28;20189;-58
2023/07/23 07:00:15;;;;;;;12.68;9.73;;;15.30;99.90;;;;;;5092869;28;20085;-58
2023/07/23 07:02:41;;;;;;;16.38;10.05;;;15.30;99.90;;;;;;5093431;28;20355;-57
2023/07/23 07:05:07;;;;;;;14.43;10.85;;;15.40;99.90;;;;;;5093242;28;20043;-58
2023/07/23 07:07:35;;;;;;;14.25;10.00;;;15.40;99.90;;;;;;5092062;28;20497;-58
2023/07/23 07:10:05;;;;;;;19.20;10.30;;;15.60;99.90;;;;;;5093183;28;20040;-57
2023/07/23 07:12:30;;;;;;;13.52;9.30;;;15.50;99.90;;;;;;5092711;28;20115;-57
2023/07/23 07:14:56;;;;;;;16.20;9.82;;;15.50;99.90;;;;;;5092964;28;20123;-57
2023/07/23 07:17:21;;;;;;;17.55;9.75;;;15.50;99.90;;;;;;5092696;28;20394;-58
2023/07/23 07:19:47;;;;;;;18.15;10.18;;;15.60;99.90;;;;;;5092758;28;20039;-57
2023/07/23 07:22:13;;;;;;;19.63;9.25;;;15.50;99.90;;;;;;5092719;28;20048;-57
2023/07/23 07:24:39;;;;;;;17.95;10.30;;;15.50;99.90;;;;;;5092724;28;20043;-58
2023/07/23 07:27:09;;;;;;;16.85;9.82;;;15.60;99.90;;;;;;5092809;28;20039;-57
2023/07/23 07:29:38;;;;;;;20.90;10.98;;;15.70;99.90;;;;;;5092503;28;20032;-57
2023/07/23 07:32:06;;;;;;;14.38;9.70;;;15.70;99.90;;;;;;5092526;28;20485;-57
2023/07/23 07:34:31;;;;;;;13.80;9.80;;;15.50;99.90;;;;;;5092473;28;20081;-58
2023/07/23 07:36:57;;;;;;;19.13;10.38;;;15.60;99.90;;;;;;5092684;28;20394;-58
2023/07/23 07:39:22;;;;;;;16.73;9.43;;;15.80;99.90;;;;;;5092401;28;20040;-58
2023/07/23 07:41:48;;;;;;;15.07;10.32;;;15.60;99.90;;;;;;5091515;28;20044;-58
2023/07/23 07:44:14;;;;;;;14.70;10.25;;;15.80;99.90;;;;;;5092587;28;20035;-58
2023/07/23 07:46:39;;;;;;;17.30;10.70;;;15.70;99.90;;;;;;5092314;28;20028;-58
2023/07/23 07:49:05;;;;;;;18.98;10.35;;;15.60;99.90;;;;;;5092334;28;20040;-58
2023/07/23 07:51:30;;;;;;;17.35;10.90;;;15.80;99.90;;;;;;5092203;28;20092;-58
2023/07/23 07:53:56;;;;;;;16.58;10.57;;;15.90;99.90;;;;;;5092573;28;20044;-56
2023/07/23 07:56:22;;;;;;;18.02;10.95;;;15.90;99.90;;;;;;5091205;28;20036;-58
2023/07/23 07:58:48;;;;;;;13.63;9.55;;;16.00;99.90;;;;;;5092207;28;20071;-57
2023/07/23 08:01:14;;;;;;;15.55;9.93;;;15.80;99.90;;;;;;5108192;28;20054;-57
2023/07/23 08:03:40;;;;;;;17.65;10.10;;;15.90;99.90;;;;;;5092390;28;20110;-57
2023/07/23 08:06:06;;;;;;;16.08;10.82;;;16.00;99.90;;;;;;5092169;28;20495;-58
2023/07/23 08:08:37;;;;;;;19.27;10.35;;;15.80;99.90;;;;;;5090778;28;20040;-58
2023/07/23 08:11:04;;;;;;;14.98;10.40;;;15.80;99.90;;;;;;5092368;28;20075;-57
2023/07/23 08:13:30;;;;;;;16.92;11.13;;;15.90;99.90;;;;;;5092063;28;20051;-57
2023/07/23 08:15:56;;;;;;;17.95;10.18;;;15.90;99.90;;;;;;5091883;28;20032;-56
2023/07/23 08:18:23;;;;;;;13.93;10.65;;;16.10;99.90;;;;;;5093505;28;20481;-58
2023/07/23 08:20:50;;;;;;;17.88;10.30;;;16.00;99.90;;;;;;5096160;28;20093;-57
2023/07/23 08:23:16;;;;;;;15.77;9.55;;;15.90;99.90;;;;;;5095993;28;20044;-57
2023/07/23 08:25:47;;;;;;;14.32;9.65;;;16.00;99.90;;;;;;5096031;28;20040;-57
2023/07/23 08:28:20;;;;;;;15.77;9.82;;;16.10;99.90;;;;;;5095957;28;20040;-57
2023/07/23 08:30:45;;;;;;;14.80;9.48;;;15.90;99.90;;;;;;5095908;28;20048;-58
2023/07/23 08:33:12;;;;;;;14.50;9.55;;;15.90;99.90;;;;;;5095743;28;20098;-58
2023/07/23 08:35:38;;;;;;;15.23;10.13;;;16.00;99.90;;;;;;5094884;28;20122;-58
2023/07/23 08:38:03;;;;;;;15.75;11.50;;;16.10;99.90;;;;;;5095737;28;20533;-57
2023/07/23 08:40:34;;;;;;;13.07;10.75;;;15.90;99.90;;;;;;5095523;28;20401;-57
2023/07/23 08:43:34;;;;;;;15.30;11.80;;;16.00;99.90;;;;;;5095116;28;20371;-58
2023/07/23 08:46:16;;;;;;;13.60;10.55;;;15.90;99.90;;;;;;5036172;28;20384;-58
2023/07/23 08:49:01;;;;;;;15.93;10.85;;;16.10;99.90;;;;;;5053083;28;20057;-58
2023/07/23 08:51:41;;;;;;;15.02;10.65;;;16.10;99.90;;;;;;5052785;28;20049;-58
2023/07/23 08:54:08;;;;;;;13.10;10.32;;;16.10;99.90;;;;;;5052934;28;20368;-58
2023/07/23 08:56:35;;;;;;;12.68;9.95;;;16.10;99.90;;;;;;5036249;28;20458;-58
2023/07/23 08:59:02;;;;;;;14.40;10.88;;;16.00;99.90;;;;;;5052720;28;20083;-58
2023/07/23 09:01:33;;;;;;;14.88;10.10;;;16.20;99.90;;;;;;5052825;28;20107;-58
2023/07/23 09:03:59;;;;;;;15.48;10.52;;;16.10;99.90;;;;;;5052738;28;20052;-58
2023/07/23 09:06:30;;;;;;;13.30;9.88;;;16.00;99.90;;;;;;5036258;28;20049;-58
2023/07/23 09:09:07;;;;;;;14.35;10.70;;;16.00;99.90;;;;;;5052610;28;20041;-58
2023/07/23 09:11:33;;;;;;;12.88;10.15;;;16.20;99.90;;;;;;5052617;28;20103;-58
2023/07/23 09:14:17;;;;;;;14.50;10.60;;;16.10;99.90;;;;;;5052276;28;20368;-59
2023/07/23 09:16:47;;;;;;;15.55;10.02;;;16.20;99.90;;;;;;5052420;28;20087;-59
2023/07/23 09:19:20;;;;;;;14.25;10.73;;;16.20;99.90;;;;;;5051837;28;20086;-58
2023/07/23 09:21:46;;;;;;;13.73;10.43;;;16.20;99.90;;;;;;5053295;28;20498;-58
2023/07/23 09:24:14;;;;;;;11.50;9.65;;;16.10;99.90;;;;;;5089184;28;20079;-58
2023/07/23 09:26:40;;;;;;;12.43;9.77;;;16.00;99.90;;;;;;5095029;28;20040;-58
2023/07/23 09:29:11;;;;;;;13.52;10.10;;;16.10;99.90;;;;;;5093697;28;20343;-57
2023/07/23 09:31:41;;;;;;;12.38;10.43;;;16.10;99.90;;;;;;5094247;28;20478;-58
2023/07/23 09:34:07;;;;;;;14.80;10.30;;;16.10;99.90;;;;;;5094694;28;20072;-58
2023/07/23 09:36:33;;;;;;;13.25;9.85;;;16.10;99.90;;;;;;5092879;28;20040;-58
2023/07/23 09:39:03;;;;;;;12.90;9.77;;;16.30;99.90;;;;;;5094467;28;20089;-59
2023/07/23 09:41:35;;;;;;;14.32;9.18;;;16.20;99.90;;;;;;5094363;28;20594;-57
2023/07/23 09:44:04;;;;;;;13.82;9.23;;;16.20;99.90;;;;;;5093217;28;20036;-58
2023/07/23 09:46:31;;;;;;;11.15;8.68;;;16.30;99.90;;;;;;5094520;28;20048;-58
2023/07/23 09:48:57;;;;;;;22.60;9.63;;;16.10;99.90;;;;;;5093493;28;20118;-57
2023/07/23 09:51:22;;;;;;;11.80;8.57;;;16.30;99.90;;;;;;5094455;28;20206;-58
2023/07/23 09:53:48;;;;;;;11.25;8.85;;;16.30;99.90;;;;;;5094418;28;20098;-59
2023/07/23 09:56:18;;;;;;;13.38;9.32;;;16.30;99.90;;;;;;5094408;28;20370;-59
2023/07/23 09:58:50;;;;;;;14.23;10.75;;;16.20;99.90;;;;;;5094334;28;20398;-58
2023/07/23 10:01:17;;;;;;;17.98;10.00;;;16.20;99.90;;;;;;5094206;28;20044;-58
2023/07/23 10:03:44;;;;;;;13.32;9.65;;;16.30;99.90;;;;;;5094157;28;20079;-59
2023/07/23 10:06:12;;;;;;;13.85;9.63;;;16.30;99.90;;;;;;5094072;28;20442;-58
2023/07/23 10:08:44;;;;;;;13.85;9.10;;;16.20;99.90;;;;;;5093916;28;20110;-58
2023/07/23 10:11:12;;;;;;;10.80;8.68;;;16.30;99.90;;;;;;5093912;28;20040;-58
2023/07/23 10:13:39;;;;;;;12.95;9.40;;;16.40;99.90;;;;;;5093820;28;20040;-58
2023/07/23 10:16:26;;;;;;;13.57;8.95;;;16.20;99.90;;;;;;5092645;28;20044;-58
2023/07/23 10:18:53;;;;;;;12.27;9.55;;;16.20;99.90;;;;;;5093812;28;20047;-58
2023/07/23 10:21:19;;;;;;;13.40;9.23;;;16.20;99.90;;;;;;5092331;28;20501;-59
2023/07/23 10:23:57;;;;;;;11.55;8.40;;;16.20;99.90;;;;;;5093986;28;20044;-59
2023/07/23 10:26:48;;;;;;;17.17;9.55;;;16.40;99.90;;;;;;5094012;28;20032;-58
2023/07/23 10:29:18;;;;;;;11.32;9.30;;;16.40;99.90;;;;;;5093323;28;20036;-58
2023/07/23 10:31:44;;;;;;;14.25;9.25;;;16.20;99.90;;;;;;5092490;28;20043;-58
2023/07/23 10:34:22;;;;;;;12.50;8.85;;;16.30;99.90;;;;;;5093959;28;20450;-58
2023/07/23 10:37:12;;;;;;;10.88;8.32;;;16.30;99.90;;;;;;5079961;28;20040;-59
2023/07/23 10:39:51;;;;;;;12.87;8.80;;;16.40;99.90;;;;;;5093885;28;20044;-58
2023/07/23 10:42:34;;;;;;;11.90;8.43;;;16.50;99.90;;;;;;5093214;28;20032;-61
2023/07/23 10:45:16;;;;;;;9.80;8.40;;;16.50;99.90;;;;;;5093443;28;20093;-59
2023/07/23 10:48:03;;;;;;;13.07;8.55;;;16.40;99.90;;;;;;5092316;28;20479;-59
2023/07/23 10:50:30;;;;;;;13.82;9.07;;;16.50;99.90;;;;;;5093454;28;20457;-57
2023/07/23 10:53:05;;;;;;;9.88;8.02;;;16.40;99.90;;;;;;5093526;28;20101;-58
2023/07/23 10:55:47;;;;;;;13.18;8.88;;;16.60;99.90;;;;;;5104635;28;20059;-57
2023/07/23 10:58:14;;;;;;;13.07;8.77;;;16.50;99.90;;;;;;5107325;28;20508;-58
2023/07/23 11:01:06;;;;;;;11.68;8.75;;;16.60;99.90;;;;;;5113380;28;20051;-57
2023/07/23 11:03:32;;;;;;;10.70;7.72;;;16.60;99.90;;;;;;5112409;28;20046;-59
2023/07/23 11:05:58;;;;;;;10.93;7.93;;;16.60;99.90;;;;;;5113422;28;20066;-58
2023/07/23 11:08:26;;;;;;;15.45;9.68;;;16.70;99.90;;;;;;5113326;28;20047;-58
2023/07/23 11:11:01;;;;;;;11.30;9.10;;;16.70;99.90;;;;;;5113345;28;20047;-58
2023/07/23 11:13:30;;;;;;;13.85;8.48;;;16.80;99.90;;;;;;5111982;28;20050;-57
2023/07/23 11:15:56;;;;;;;11.13;7.90;;;16.70;99.90;;;;;;5113630;28;20035;-57
2023/07/23 11:18:23;;;;;;;13.88;8.55;;;16.80;99.90;;;;;;5112995;28;20043;-58
2023/07/23 11:20:51;;;;;;;10.95;8.85;;;16.80;99.90;;;;;;5113494;28;20043;-57
2023/07/23 11:23:20;;;;;;;15.13;8.65;;;16.90;99.90;;;;;;5107140;28;20073;-58
2023/07/23 11:25:47;;;;;;;12.63;8.45;;;16.80;99.90;;;;;;5113175;28;20123;-59
2023/07/23 11:28:15;;;;;;;11.80;7.82;;;16.80;99.90;;;;;;5106023;28;20054;-58
2023/07/23 11:30:41;;;;;;;11.88;8.40;;;16.80;99.90;;;;;;5111954;28;20043;-58
2023/07/23 11:33:08;;;;;;;9.95;8.60;;;16.80;99.90;;;;;;5113278;28;20043;-58
2023/07/23 11:35:34;;;;;;;15.63;8.80;;;16.80;99.90;;;;;;5112736;27;20439;-59
2023/07/23 11:38:04;;;;;;;14.02;9.13;;;16.90;99.90;;;;;;5112494;28;20485;-58
2023/07/23 11:40:30;;;;;;;11.77;8.50;;;17.00;99.90;;;;;;5111545;28;20039;-58
2023/07/23 11:42:56;;;;;;;12.68;8.80;;;16.90;99.90;;;;;;5113026;28;20092;-58
2023/07/23 11:45:22;;;;;;;10.80;8.23;;;16.90;99.90;;;;;;5113216;28;20451;-59
2023/07/23 11:47:52;;;;;;;12.40;8.43;;;16.90;99.90;;;;;;5112926;28;20599;-59
2023/07/23 11:50:19;;;;;;;10.38;8.10;;;16.90;99.90;;;;;;5113201;28;20399;-58
2023/07/23 11:52:49;;;;;;;10.45;8.20;;;16.90;99.90;;;;;;5112495;28;20062;-58
2023/07/23 11:55:21;;;;;;;10.00;7.50;;;17.00;99.90;;;;;;5113284;28;20142;-59
2023/07/23 11:57:55;;;;;;;12.48;8.32;;;16.90;99.90;;;;;;5112978;28;20044;-59
2023/07/23 12:00:30;;;;;;;10.93;7.82;;;17.00;99.90;;;;;;5112811;28;20088;-58
2023/07/23 12:02:57;;;;;;;10.80;7.63;;;17.00;99.90;;;;;;5112540;28;20699;-58
2023/07/23 12:05:24;;;;;;;11.45;8.52;;;16.80;99.90;;;;;;5111845;28;20071;-58
2023/07/23 12:07:53;;;;;;;11.60;7.65;;;16.90;99.90;;;;;;5094856;28;20051;-58
2023/07/23 12:10:19;;;;;;;9.52;7.88;;;16.90;99.90;;;;;;5111608;28;20056;-58
2023/07/23 12:12:46;;;;;;;10.77;7.30;;;17.00;99.90;;;;;;5112986;28;20047;-58
2023/07/23 12:15:16;;;;;;;10.25;7.57;;;16.90;99.90;;;;;;5112776;28;20440;-59
2023/07/23 12:17:43;;;;;;;10.38;7.80;;;16.80;99.90;;;;;;5112205;28;20048;-57
2023/07/23 12:20:10;;;;;;;9.25;6.70;;;16.90;99.90;;;;;;5112527;28;20066;-58
2023/07/23 12:22:53;;;;;;;12.55;7.50;;;17.00;99.90;;;;;;5112223;28;20051;-58
2023/07/23 12:25:19;;;;;;;9.55;6.93;;;17.10;99.90;;;;;;5112425;28;20060;-58
2023/07/23 12:27:45;;;;;;;7.88;6.78;;;17.00;99.90;;;;;;5112491;28;20513;-58
2023/07/23 12:30:11;;;;;;;7.82;6.50;;;17.20;99.90;;;;;;5112448;28;20048;-57
2023/07/23 12:32:37;;;;;;;8.02;6.43;;;17.10;99.90;;;;;;5112537;28;20036;-57
2023/07/23 12:35:03;;;;;;;8.75;6.68;;;17.10;99.90;;;;;;5112603;28;20035;-58
2023/07/23 12:37:30;;;;;;;7.35;5.80;;;17.30;99.90;;;;;;5112130;28;20063;-57
2023/07/23 12:39:56;;;;;;;13.60;7.18;;;17.30;99.90;;;;;;5111296;28;20126;-59